Terminal Aerodrome Forecast
Issued by NWS Riverton, WY

Home | Current Version | Previous Version | Text Only | Print | Product List | Glossary On
Versions: 1 2 3 4 5 6 7 8 9 10 11 12
000
FTUS45 KRIW 202300
TAFRIW
TAF
KRIW 202326Z 2100/2124 25009KT P6SM VCSH SCT080 BKN110
     FM210200 29009KT P6SM SCT120 BKN200
     FM212000 25009KT P6SM SCT070 BKN120=

USA.gov is the U.S. government's official web portal to all federal, state and local government web resources and services.